createdAt,value
2022-08-27T00:00:01.937Z,6.20
2022-08-27T00:02:28.828Z,6.85
2022-08-27T00:04:55.672Z,10.77
2022-08-27T00:07:22.485Z,7.47
2022-08-27T00:09:49.279Z,9.10
2022-08-27T00:12:17.474Z,13.30
2022-08-27T00:14:44.474Z,19.80
2022-08-27T00:17:11.669Z,23.75
2022-08-27T00:19:38.667Z,20.45
2022-08-27T00:22:07.442Z,21.23
2022-08-27T00:24:34.497Z,24.30
2022-08-27T00:27:05.372Z,35.70
2022-08-27T00:29:35.227Z,32.75
2022-08-27T00:32:02.359Z,34.25
2022-08-27T00:34:29.912Z,30.48
2022-08-27T00:36:56.936Z,25.30
2022-08-27T00:39:23.849Z,54.85
2022-08-27T00:41:50.695Z,50.78
2022-08-27T00:44:17.498Z,54.70
2022-08-27T00:46:48.807Z,49.05
2022-08-27T00:49:19.272Z,69.80
2022-08-27T00:51:51.122Z,64.70
2022-08-27T00:54:18.835Z,88.93
2022-08-27T00:56:50.647Z,68.38
2022-08-27T00:59:21.784Z,56.63
2022-08-27T01:02:09.170Z,82.88
2022-08-27T01:04:38.688Z,106.82
2022-08-27T01:07:05.986Z,83.85
2022-08-27T01:09:33.227Z,73.15
2022-08-27T01:12:00.134Z,94.75
2022-08-27T01:14:27.331Z,105.13
2022-08-27T01:16:58.822Z,105.53
2022-08-27T01:19:32.893Z,117.82
2022-08-27T01:22:05.794Z,109.70
2022-08-27T01:24:37.350Z,117.50
2022-08-27T01:27:08.113Z,111.88
2022-08-27T01:29:41.753Z,93.50
2022-08-27T01:32:10.723Z,97.38
2022-08-27T01:34:38.233Z,72.80
2022-08-27T01:37:06.671Z,76.50
2022-08-27T01:39:36.544Z,79.40
2022-08-27T01:42:05.828Z,61.00
2022-08-27T01:44:43.225Z,33.95
2022-08-27T01:47:10.031Z,36.97
2022-08-27T01:49:37.046Z,42.80
2022-08-27T01:52:05.012Z,34.30
2022-08-27T01:54:32.738Z,35.90
2022-08-27T01:57:01.761Z,32.05
2022-08-27T01:59:39.821Z,30.92
2022-08-27T02:02:08.294Z,36.45
2022-08-27T02:04:36.006Z,40.35
2022-08-27T02:07:03.648Z,42.05
2022-08-27T02:09:31.645Z,41.70
2022-08-27T02:12:02.749Z,30.35
2022-08-27T02:14:29.557Z,34.42
2022-08-27T02:16:56.767Z,43.47
2022-08-27T02:19:24.389Z,42.78
2022-08-27T02:21:51.323Z,43.05
2022-08-27T02:24:18.431Z,61.00
2022-08-27T02:26:45.275Z,49.25
2022-08-27T02:29:14.654Z,58.20
2022-08-27T02:31:42.160Z,67.88
2022-08-27T02:34:10.364Z,103.47
2022-08-27T02:36:37.511Z,90.55
2022-08-27T02:39:04.924Z,68.70
2022-08-27T02:41:31.789Z,81.22
2022-08-27T02:43:58.863Z,119.85
2022-08-27T02:46:30.205Z,113.18
2022-08-27T02:48:57.059Z,86.20
2022-08-27T02:51:23.908Z,106.75
2022-08-27T02:53:50.726Z,117.82
2022-08-27T02:56:21.874Z,103.78
2022-08-27T02:58:49.563Z,104.22
2022-08-27T03:01:16.644Z,105.45
2022-08-27T03:03:45.104Z,91.90
2022-08-27T03:06:11.942Z,57.03
2022-08-27T03:08:52.008Z,46.15
2022-08-27T03:11:20.436Z,31.98
2022-08-27T03:13:47.240Z,20.98
2022-08-27T03:16:14.146Z,23.00
2022-08-27T03:18:41.003Z,35.03
2022-08-27T03:21:09.490Z,46.67
2022-08-27T03:23:36.364Z,32.88
2022-08-27T03:26:10.627Z,20.92
2022-08-27T03:28:38.547Z,15.93
2022-08-27T03:31:08.072Z,13.70
2022-08-27T03:33:37.546Z,21.73
2022-08-27T03:36:04.948Z,31.08
2022-08-27T03:38:33.325Z,25.35
2022-08-27T03:41:01.130Z,45.63
2022-08-27T03:43:28.012Z,33.28
2022-08-27T03:46:01.885Z,27.27
2022-08-27T03:48:30.673Z,32.03
2022-08-27T03:50:57.550Z,20.85
2022-08-27T03:53:24.860Z,33.08
2022-08-27T03:55:53.020Z,35.13
2022-08-27T03:58:20.226Z,41.40
2022-08-27T04:00:47.400Z,43.55
2022-08-27T04:03:15.044Z,36.63
2022-08-27T04:05:42.579Z,47.20
2022-08-27T04:08:13.522Z,36.58
2022-08-27T04:10:41.114Z,37.80
2022-08-27T04:13:09.352Z,35.40
2022-08-27T04:15:39.509Z,37.70
2022-08-27T04:18:08.057Z,31.02
2022-08-27T06:49:28.133Z,8.48
2022-08-27T06:51:56.417Z,4.78
2022-08-27T06:54:25.707Z,19.02
2022-08-27T06:56:52.516Z,16.67
2022-08-27T06:59:19.823Z,18.85
2022-08-27T07:01:51.793Z,14.50
2022-08-27T07:04:20.897Z,21.15
2022-08-27T07:06:48.224Z,9.63
2022-08-27T07:09:16.974Z,11.07
2022-08-27T07:11:43.860Z,12.10
2022-08-27T07:14:10.797Z,9.32
2022-08-27T07:16:37.747Z,10.93
2022-08-27T07:19:07.802Z,8.68
2022-08-27T07:21:35.612Z,11.73
2022-08-27T07:24:05.485Z,6.90
2022-08-27T07:26:35.449Z,6.47
2022-08-27T07:29:03.016Z,9.10
2022-08-27T07:31:30.076Z,5.38
2022-08-27T07:33:56.989Z,5.43
2022-08-27T07:36:24.338Z,6.55
2022-08-27T07:38:59.235Z,9.77
2022-08-27T07:41:31.322Z,5.15
2022-08-27T07:44:19.214Z,7.35
2022-08-27T07:46:48.775Z,7.55
2022-08-27T07:49:16.341Z,8.02
2022-08-27T07:51:43.183Z,5.03
2022-08-27T07:54:10.111Z,8.32
2022-08-27T07:56:36.960Z,5.75
2022-08-27T07:59:05.203Z,16.95
2022-08-27T08:01:32.122Z,5.28
2022-08-27T08:03:59.091Z,9.77
2022-08-27T08:06:26.266Z,10.57
2022-08-27T08:08:53.282Z,7.22
2022-08-27T08:11:20.488Z,4.70
2022-08-27T08:13:48.100Z,7.20
2022-08-27T08:16:16.986Z,4.60
2022-08-27T08:18:43.786Z,3.70
2022-08-27T08:21:13.682Z,4.50
2022-08-27T08:23:41.242Z,6.35
2022-08-27T08:26:09.195Z,3.78
2022-08-27T08:28:36.704Z,6.22
2022-08-27T08:31:03.974Z,5.43
2022-08-27T08:33:33.127Z,5.25
2022-08-27T08:36:04.581Z,7.18
2022-08-27T08:38:31.808Z,4.55
2022-08-27T08:40:59.024Z,4.90
2022-08-27T08:43:31.694Z,9.90
2022-08-27T08:46:07.947Z,7.30
2022-08-27T08:48:41.350Z,4.20
2022-08-27T08:52:07.293Z,5.78
2022-08-27T09:02:46.008Z,3.88
2022-08-27T09:05:14.335Z,7.32
2022-08-27T09:07:48.762Z,3.67
2022-08-27T09:12:43.415Z,10.43
2022-08-27T09:18:18.259Z,4.82
2022-08-27T09:21:34.274Z,8.13
2022-08-27T09:23:49.110Z,6.50
2022-08-27T09:24:09.730Z,5.73
2022-08-27T09:26:39.699Z,4.53
2022-08-27T09:29:16.558Z,5.45
2022-08-27T09:31:44.809Z,4.15
2022-08-27T09:34:11.892Z,4.90
2022-08-27T09:36:51.459Z,6.85
2022-08-27T09:45:03.193Z,15.85
2022-08-27T09:48:40.365Z,4.03
2022-08-27T09:52:42.497Z,4.28
2022-08-27T09:55:11.913Z,5.72
2022-08-27T09:57:41.486Z,3.33
2022-08-27T10:00:15.309Z,12.50
2022-08-27T10:06:47.489Z,4.70
2022-08-27T10:13:34.504Z,12.55
2022-08-27T10:41:43.884Z,4.07
2022-08-27T10:44:28.357Z,7.18
2022-08-27T10:47:06.628Z,3.00
2022-08-27T10:49:44.257Z,5.30
2022-08-27T10:52:18.604Z,7.05
2022-08-27T10:54:52.517Z,7.28
2022-08-27T10:57:45.385Z,4.50
2022-08-27T11:00:19.674Z,6.20
2022-08-27T11:02:54.142Z,7.03
2022-08-27T11:05:29.087Z,5.38
2022-08-27T11:08:01.708Z,4.82
2022-08-27T12:30:42.957Z,2.95
2022-08-27T12:34:12.624Z,6.25
2022-08-27T12:54:19.110Z,7.57
2022-08-27T13:15:16.320Z,5.18
2022-08-27T13:17:44.910Z,4.88
2022-08-27T13:20:17.549Z,6.65
2022-08-27T13:59:24.302Z,2.78
2022-08-27T14:01:55.729Z,6.32
2022-08-27T14:04:25.300Z,9.68
2022-08-27T14:06:53.425Z,3.88
2022-08-27T14:09:26.076Z,6.97
2022-08-27T14:11:59.923Z,4.63
2022-08-27T14:14:28.851Z,4.25
2022-08-27T14:17:00.696Z,8.23
2022-08-27T14:23:54.770Z,4.80
2022-08-27T14:26:22.117Z,4.93
2022-08-27T14:33:54.212Z,11.43
2022-08-27T14:40:41.771Z,4.10
2022-08-27T14:43:08.677Z,8.85
2022-08-27T14:45:38.430Z,7.65
2022-08-27T14:48:07.177Z,12.07
2022-08-27T14:50:44.216Z,5.43
2022-08-27T14:53:11.182Z,2.65
2022-08-27T14:55:38.165Z,12.13
2022-08-27T14:58:05.115Z,6.88
2022-08-27T15:00:32.743Z,6.97
2022-08-27T15:02:59.615Z,2.72
2022-08-27T15:05:27.174Z,4.20
2022-08-27T15:07:58.009Z,7.38
2022-08-27T15:10:27.382Z,10.23
2022-08-27T15:12:54.703Z,5.80
2022-08-27T15:15:21.731Z,4.45
2022-08-27T15:17:48.799Z,5.35
2022-08-27T15:20:20.176Z,8.30
2022-08-27T15:22:50.835Z,4.35
2022-08-27T15:25:19.636Z,4.95
2022-08-27T15:27:46.484Z,4.85
2022-08-27T15:30:15.060Z,2.90
2022-08-27T15:32:44.184Z,4.32
2022-08-27T15:35:14.318Z,2.72
2022-08-27T15:37:42.252Z,2.63
2022-08-27T15:40:10.813Z,3.80
2022-08-27T15:42:39.387Z,12.63
2022-08-27T15:45:08.281Z,4.80
2022-08-27T15:47:35.185Z,12.23
2022-08-27T15:50:02.219Z,19.00
2022-08-27T15:52:40.418Z,2.85
2022-08-27T15:55:14.808Z,5.53
2022-08-27T15:57:43.053Z,16.23
2022-08-27T16:00:11.325Z,7.47
2022-08-27T16:02:38.178Z,18.23
2022-08-27T16:05:06.454Z,8.57
2022-08-27T16:07:33.344Z,4.93
2022-08-27T16:10:00.171Z,52.08
2022-08-27T16:12:27.769Z,3.15
2022-08-27T16:14:56.112Z,4.10
2022-08-27T16:17:23.563Z,3.90
2022-08-27T16:19:50.388Z,6.90
2022-08-27T16:22:17.256Z,4.93
2022-08-27T16:24:44.574Z,5.85
2022-08-27T16:27:11.965Z,31.67
2022-08-27T16:29:38.764Z,4.65
2022-08-27T16:32:14.164Z,6.15
2022-08-27T16:34:41.254Z,5.68
2022-08-27T16:37:08.025Z,6.90
2022-08-27T16:39:40.043Z,4.45
2022-08-27T16:42:10.148Z,4.67
2022-08-27T16:44:37.458Z,3.42
2022-08-27T16:47:04.900Z,5.00
2022-08-27T16:49:51.456Z,6.38
2022-08-27T16:52:20.894Z,3.35
2022-08-27T16:54:47.970Z,3.95
2022-08-27T16:57:14.813Z,5.75
2022-08-27T16:59:41.751Z,2.97
2022-08-27T17:02:16.960Z,10.25
2022-08-27T17:04:49.224Z,5.97
2022-08-27T17:07:25.803Z,3.47
2022-08-27T17:09:52.911Z,7.95
2022-08-27T17:12:24.630Z,2.50
2022-08-27T17:14:51.702Z,5.45
2022-08-27T17:17:19.116Z,6.28
2022-08-27T17:19:48.211Z,3.45
2022-08-27T17:22:15.083Z,4.97
2022-08-27T17:24:41.984Z,4.57
2022-08-27T17:27:09.028Z,10.02
2022-08-27T17:29:37.130Z,6.45
2022-08-27T17:32:06.747Z,9.50
2022-08-27T17:34:33.836Z,6.38
2022-08-27T17:37:02.019Z,13.38
2022-08-27T17:39:30.990Z,4.30
2022-08-27T17:41:57.936Z,4.00
2022-08-27T17:44:28.072Z,5.70
2022-08-27T17:46:58.135Z,5.38
2022-08-27T17:49:25.665Z,4.07
2022-08-27T17:51:57.439Z,4.20
2022-08-27T17:54:30.251Z,5.10
2022-08-27T17:56:57.510Z,5.10
2022-08-27T17:59:25.260Z,5.28
2022-08-27T18:01:52.216Z,4.38
2022-08-27T18:04:19.192Z,4.78
2022-08-27T18:06:46.039Z,4.13
2022-08-27T18:09:15.912Z,2.83
2022-08-27T18:11:45.103Z,11.48
2022-08-27T18:14:12.519Z,7.03
2022-08-27T18:16:45.270Z,10.50
2022-08-27T18:19:12.405Z,8.00
2022-08-27T18:21:46.926Z,13.10
2022-08-27T18:24:14.778Z,5.90
2022-08-27T18:26:42.136Z,3.70
2022-08-27T18:29:11.463Z,2.90
2022-08-27T18:31:38.406Z,12.25
2022-08-27T18:34:05.283Z,12.05
2022-08-27T18:36:32.118Z,5.32
2022-08-27T18:38:59.010Z,5.30
2022-08-27T18:41:29.398Z,6.28
2022-08-27T18:43:56.440Z,10.23
2022-08-27T18:46:25.201Z,2.67
2022-08-27T18:48:52.162Z,11.18
2022-08-27T18:51:19.800Z,3.22
2022-08-27T18:53:47.681Z,4.45
2022-08-27T18:56:16.717Z,5.78
2022-08-27T18:58:43.870Z,3.97
2022-08-27T19:01:13.821Z,4.28
2022-08-27T19:03:45.287Z,7.55
2022-08-27T19:06:12.680Z,4.18
2022-08-27T19:08:42.177Z,13.55
2022-08-27T19:11:09.124Z,14.43
2022-08-27T19:13:36.338Z,7.22
2022-08-27T19:16:07.054Z,5.18
2022-08-27T19:18:36.765Z,7.78
2022-08-27T19:21:05.715Z,8.88
2022-08-27T19:23:32.543Z,4.70
2022-08-27T19:26:00.693Z,10.30
2022-08-27T19:28:31.690Z,2.78
2022-08-27T19:30:58.507Z,1.77
2022-08-27T19:33:25.303Z,13.90
2022-08-27T19:35:52.204Z,10.05
2022-08-27T19:38:21.055Z,20.02
2022-08-27T19:40:47.880Z,7.82
2022-08-27T19:43:14.644Z,4.75
2022-08-27T19:45:41.634Z,4.32
2022-08-27T19:48:09.172Z,4.93
2022-08-27T19:50:36.050Z,10.85
2022-08-27T19:53:03.064Z,4.53
2022-08-27T19:55:31.350Z,11.63
2022-08-27T19:57:58.272Z,9.82
2022-08-27T20:00:27.722Z,5.82
2022-08-27T20:02:55.208Z,7.35
2022-08-27T20:05:23.086Z,4.10
2022-08-27T20:07:52.206Z,8.57
2022-08-27T20:10:21.676Z,5.50
2022-08-27T20:12:50.273Z,7.38
2022-08-27T20:15:17.656Z,4.38
2022-08-27T20:17:45.183Z,8.00
2022-08-27T20:20:12.656Z,7.30
2022-08-27T20:22:42.109Z,4.88
2022-08-27T20:25:09.248Z,6.35
2022-08-27T20:27:36.365Z,5.82
2022-08-27T20:30:06.140Z,9.32
2022-08-27T20:32:35.606Z,7.70
2022-08-27T20:35:02.641Z,5.80
2022-08-27T20:37:29.602Z,5.35
2022-08-27T20:39:56.739Z,4.53
2022-08-27T20:42:23.748Z,7.93
2022-08-27T20:44:51.038Z,10.60
2022-08-27T20:47:20.028Z,9.70
2022-08-27T20:49:46.927Z,8.38
2022-08-27T20:52:13.935Z,6.13
2022-08-27T20:54:41.113Z,6.20
2022-08-27T20:57:09.005Z,4.45
2022-08-27T20:59:54.634Z,6.95
2022-08-27T21:02:25.387Z,5.60
2022-08-27T21:04:53.048Z,9.32
2022-08-27T21:07:22.148Z,11.85
2022-08-27T21:09:57.241Z,6.13
2022-08-27T21:12:25.676Z,6.45
2022-08-27T21:14:54.770Z,5.97
2022-08-27T21:17:26.307Z,6.93
2022-08-27T21:19:53.889Z,6.20
2022-08-27T21:22:21.807Z,5.13
2022-08-27T21:24:48.940Z,9.77
2022-08-27T21:27:16.492Z,7.82
2022-08-27T21:29:45.035Z,6.47
2022-08-27T21:32:12.296Z,12.20
2022-08-27T21:34:41.843Z,6.30
2022-08-27T21:37:08.880Z,8.63
2022-08-27T21:39:37.592Z,9.70
2022-08-27T21:42:05.415Z,6.63
2022-08-27T21:44:32.513Z,5.63
2022-08-27T21:47:01.735Z,5.07
2022-08-27T21:49:29.173Z,14.88
2022-08-27T21:51:57.467Z,8.07
2022-08-27T21:54:26.240Z,6.78
2022-08-27T21:56:55.431Z,4.65
2022-08-27T21:59:22.535Z,7.38
2022-08-27T22:01:59.202Z,5.47
2022-08-27T22:04:29.836Z,8.85
2022-08-27T22:06:59.373Z,16.85
2022-08-27T22:09:26.575Z,7.90
2022-08-27T22:11:53.699Z,19.98
2022-08-27T22:14:20.852Z,6.45
2022-08-27T22:16:47.986Z,6.18
2022-08-27T22:19:14.947Z,6.43
2022-08-27T22:21:42.286Z,7.43
2022-08-27T22:24:10.704Z,5.45
2022-08-27T22:26:37.671Z,6.13
2022-08-27T22:29:05.380Z,6.07
2022-08-27T22:31:33.208Z,6.47
2022-08-27T22:34:01.054Z,9.43
2022-08-27T22:36:28.803Z,10.98
2022-08-27T22:39:03.586Z,4.20
2022-08-27T22:41:32.763Z,6.93
2022-08-27T22:43:59.729Z,7.47
2022-08-27T22:46:26.891Z,7.20
2022-08-27T22:48:53.920Z,5.13
2022-08-27T22:51:20.926Z,11.20
2022-08-27T22:53:47.894Z,11.25
